createdAt,value
2022-11-26T00:00:56.438Z,1
2022-11-26T00:03:00.463Z,1
2022-11-26T00:05:04.232Z,1
2022-11-26T00:07:08.201Z,1
2022-11-26T00:09:12.043Z,1
2022-11-26T00:15:27.871Z,1
2022-11-26T00:17:30.664Z,1
2022-11-26T00:19:34.566Z,1
2022-11-26T00:21:38.451Z,1
2022-11-26T00:25:49.254Z,1
2022-11-26T00:29:57.049Z,1
2022-11-26T00:32:01.073Z,1
2022-11-26T00:34:04.856Z,1
2022-11-26T00:36:09.390Z,1
2022-11-26T00:38:12.639Z,1
2022-11-26T00:41:03.670Z,1
2022-11-26T00:42:23.611Z,1
2022-11-26T00:46:51.703Z,1
2022-11-26T00:49:01.890Z,1
2022-11-26T00:50:59.508Z,1
2022-11-26T00:53:06.428Z,1
2022-11-26T00:55:10.370Z,1
2022-11-26T00:57:18.926Z,1
2022-11-26T00:59:18.131Z,1
2022-11-26T01:03:25.905Z,1
2022-11-26T01:07:36.771Z,1
2022-11-26T01:09:42.193Z,1
2022-11-26T01:11:48.796Z,1
2022-11-26T01:13:49.945Z,1
2022-11-26T01:15:53.826Z,1
2022-11-26T01:17:57.725Z,1
2022-11-26T01:20:01.623Z,1
2022-11-26T01:22:08.521Z,1
2022-11-26T01:24:12.414Z,1
2022-11-26T01:26:16.282Z,1
2022-11-26T01:28:20.167Z,1
2022-11-26T01:30:24.042Z,1
2022-11-26T01:32:29.574Z,1
2022-11-26T01:34:31.814Z,1
2022-11-26T01:36:38.696Z,1
2022-11-26T01:38:42.600Z,1
2022-11-26T01:40:46.452Z,1
2022-11-26T01:41:49.897Z,1
2022-11-26T01:45:57.686Z,1
2022-11-26T01:52:12.276Z,1
2022-11-26T01:54:16.145Z,1
2022-11-26T01:56:53.723Z,1
2022-11-26T01:58:23.872Z,1
2022-11-26T02:00:27.736Z,1
2022-11-26T02:02:31.759Z,1
2022-11-26T02:08:46.195Z,1
2022-11-26T02:10:50.099Z,1
2022-11-26T02:14:57.831Z,1
2022-11-26T02:19:08.541Z,1
2022-11-26T02:21:12.387Z,1
2022-11-26T02:23:16.251Z,1
2022-11-26T02:25:20.106Z,1
2022-11-26T02:29:27.771Z,1
2022-11-26T02:31:31.705Z,1
2022-11-26T02:33:38.503Z,1
2022-11-26T02:35:42.337Z,1
2022-11-26T02:37:46.194Z,1
2022-11-26T02:38:49.610Z,1
2022-11-26T02:40:53.622Z,1
2022-11-26T02:42:57.296Z,1
2022-11-26T02:47:08.005Z,1
2022-11-26T02:49:11.833Z,1
2022-11-26T02:51:15.680Z,1
2022-11-26T02:53:19.603Z,1
2022-11-26T02:55:23.485Z,1
2022-11-26T02:57:27.334Z,1
2022-11-26T02:59:31.194Z,1
2022-11-26T03:01:38.107Z,1
2022-11-26T03:03:41.899Z,1
2022-11-26T03:05:45.721Z,1
2022-11-26T03:09:53.426Z,1
2022-11-26T03:11:57.271Z,1
2022-11-26T03:14:01.087Z,1
2022-11-26T03:18:11.771Z,1
2022-11-26T03:20:15.624Z,1
2022-11-26T03:22:19.470Z,1
2022-11-26T03:24:23.337Z,1
2022-11-26T03:26:27.133Z,1
2022-11-26T03:28:30.955Z,1
2022-11-26T03:30:37.851Z,1
2022-11-26T03:34:45.518Z,1
2022-11-26T03:35:48.937Z,1
2022-11-26T03:37:52.786Z,1
2022-11-26T03:39:56.620Z,1
2022-11-26T03:42:00.438Z,1
2022-11-26T03:44:07.316Z,1
2022-11-26T03:48:14.974Z,1
2022-11-26T03:50:18.824Z,1
2022-11-26T03:52:22.642Z,1.7
2022-11-26T03:54:26.503Z,2.4
2022-11-26T03:56:30.330Z,3.4
2022-11-26T03:58:37.294Z,4.4
2022-11-26T04:00:41.149Z,5
2022-11-26T04:02:45.025Z,5.3
2022-11-26T04:04:48.815Z,5.7
2022-11-26T04:06:52.667Z,5.8
2022-11-26T04:08:56.497Z,5.8
2022-11-26T04:11:00.346Z,5.3
2022-11-26T04:13:07.199Z,3.8
2022-11-26T04:15:11.028Z,3.4
2022-11-26T04:17:14.894Z,2.8
2022-11-26T04:19:18.740Z,1
2022-11-26T04:23:26.396Z,2.5
2022-11-26T04:25:30.222Z,2.3
2022-11-26T04:27:37.086Z,4.3
2022-11-26T04:29:40.896Z,4.9
2022-11-26T04:31:44.812Z,5.9
2022-11-26T04:34:02.934Z,7.9
2022-11-26T04:36:06.765Z,8.9
2022-11-26T04:38:10.597Z,9.7
2022-11-26T04:42:21.279Z,12.1
2022-11-26T04:44:25.125Z,13
2022-11-26T04:48:32.786Z,13.4
2022-11-26T04:50:36.603Z,14
2022-11-26T04:52:40.436Z,14.8
2022-11-26T04:56:51.126Z,17.9
2022-11-26T04:58:54.938Z,18.9
2022-11-26T05:00:58.889Z,20.4
2022-11-26T05:03:02.720Z,24.6
2022-11-26T05:05:06.431Z,26.9
2022-11-26T05:07:10.406Z,28.5
2022-11-26T05:09:17.158Z,30.1
2022-11-26T05:11:20.978Z,30.3
2022-11-26T05:13:24.803Z,30.6
2022-11-26T05:15:28.647Z,30.5
2022-11-26T05:17:32.467Z,30.9
2022-11-26T05:19:36.302Z,31.5
2022-11-26T05:21:40.692Z,32.8
2022-11-26T05:23:47.533Z,33.6
2022-11-26T05:25:51.365Z,34.3
2022-11-26T05:27:55.203Z,36
2022-11-26T05:28:58.643Z,39.8
2022-11-26T05:31:02.467Z,40.5
2022-11-26T05:33:06.318Z,44.9
2022-11-26T05:35:10.171Z,47
2022-11-26T05:37:17.082Z,49.2
2022-11-26T05:41:24.752Z,49.9
2022-11-26T05:43:28.601Z,50.1
2022-11-26T05:45:32.536Z,49.8
2022-11-26T05:47:36.341Z,49.9
2022-11-26T05:55:54.788Z,48.2
2022-11-26T05:57:58.669Z,47.3
2022-11-26T06:02:06.576Z,42.1
2022-11-26T06:06:17.107Z,39.8
2022-11-26T06:08:20.985Z,38.8
2022-11-26T06:10:24.858Z,36.6
2022-11-26T06:12:28.690Z,32.5
2022-11-26T06:16:36.489Z,27.2
2022-11-26T06:18:40.240Z,26
2022-11-26T06:20:47.128Z,25.9
2022-11-26T06:22:50.959Z,26.6
2022-11-26T06:24:54.836Z,30.3
2022-11-26T06:25:58.285Z,30.6
2022-11-26T06:28:02.125Z,30.7
2022-11-26T06:30:05.947Z,30.1
2022-11-26T06:32:09.880Z,26
2022-11-26T06:38:24.352Z,20.4
2022-11-26T06:40:28.183Z,20.1
2022-11-26T06:42:32.012Z,19.7
2022-11-26T06:44:36.039Z,22.3
2022-11-26T06:46:39.681Z,24.3
2022-11-26T06:48:46.519Z,24.3
2022-11-26T06:50:50.377Z,24.4
2022-11-26T06:52:54.148Z,24.8
2022-11-26T06:54:57.988Z,29
2022-11-26T06:57:01.795Z,32.9
2022-11-26T06:59:05.592Z,39.9
2022-11-26T07:01:09.508Z,41.1
2022-11-26T07:03:20.973Z,44.5
2022-11-26T07:05:20.183Z,45.2
2022-11-26T07:07:24.028Z,45.8
2022-11-26T07:09:29.344Z,46.1
2022-11-26T07:11:33.290Z,46.6
2022-11-26T07:13:36.934Z,46.6
2022-11-26T07:21:55.239Z,47.7
2022-11-26T07:22:58.643Z,48.2
2022-11-26T07:25:02.471Z,49.2
2022-11-26T07:27:06.312Z,50
2022-11-26T07:29:10.163Z,50.8
2022-11-26T07:31:17.359Z,52.7
2022-11-26T07:35:24.566Z,54.3
2022-11-26T07:37:28.394Z,55.6
2022-11-26T07:41:36.016Z,58.6
2022-11-26T07:43:39.838Z,60.2
2022-11-26T07:45:46.740Z,63.3
2022-11-26T07:47:50.506Z,63.9
2022-11-26T07:49:54.321Z,64.9
2022-11-26T07:51:58.156Z,66.3
2022-11-26T07:54:01.974Z,67.6
2022-11-26T07:56:05.804Z,71
2022-11-26T07:58:09.612Z,71.8
2022-11-26T08:00:16.463Z,75.3
2022-11-26T08:02:20.326Z,76
2022-11-26T08:04:24.109Z,76.7
2022-11-26T08:06:27.953Z,77.7
2022-11-26T08:08:31.766Z,78.7
2022-11-26T08:10:35.616Z,79.5
2022-11-26T08:12:39.591Z,80.9
2022-11-26T08:14:46.290Z,82.7
2022-11-26T08:16:50.172Z,83.6
2022-11-26T08:18:54.051Z,84.4
2022-11-26T08:21:17.845Z,88
2022-11-26T08:23:21.683Z,88.9
2022-11-26T08:25:25.522Z,89.6
2022-11-26T08:27:32.397Z,91.5
2022-11-26T08:29:36.254Z,92
2022-11-26T08:31:45.271Z,92.9
2022-11-26T08:33:43.950Z,93.8
2022-11-26T08:36:06.111Z,95.1
2022-11-26T08:37:51.647Z,96.6
2022-11-26T08:39:55.501Z,98.1
2022-11-26T08:42:51.630Z,98.8
2022-11-26T08:44:07.783Z,99.4
2022-11-26T08:46:10.197Z,99.6
2022-11-26T08:48:14.161Z,99.9
2022-11-26T08:50:17.851Z,99.9
2022-11-26T08:52:56.844Z,99.9
2022-11-26T08:54:25.636Z,99.9
2022-11-26T08:56:32.532Z,99.9
2022-11-26T08:58:36.426Z,99.9
2022-11-26T09:00:40.319Z,99.9
2022-11-26T09:02:44.256Z,99.9
2022-11-26T09:04:48.101Z,99.9
2022-11-26T09:08:55.932Z,99.9
2022-11-26T09:15:10.767Z,99.9
2022-11-26T09:16:14.194Z,99.9
2022-11-26T09:18:18.088Z,99.9
2022-11-26T09:22:25.944Z,99.9
2022-11-26T09:24:32.870Z,99.9
2022-11-26T09:26:36.807Z,99.9
2022-11-26T09:28:40.771Z,99.9
2022-11-26T09:30:44.721Z,99.9
2022-11-26T09:34:52.581Z,99.9
2022-11-26T09:36:56.499Z,99.9
2022-11-26T09:39:03.563Z,99.9
2022-11-26T09:41:07.455Z,99.9
2022-11-26T09:43:11.372Z,99.9
2022-11-26T09:45:15.297Z,99.9
2022-11-26T09:47:19.237Z,99.9
2022-11-26T09:49:23.299Z,99.9
2022-11-26T09:51:33.534Z,99.9
2022-11-26T09:53:34.082Z,99.9
2022-11-26T09:55:38.035Z,99.9
2022-11-26T09:57:42.029Z,99.9
2022-11-26T09:59:45.932Z,99.9
2022-11-26T10:01:49.892Z,99.9
2022-11-26T10:03:53.806Z,99.9
2022-11-26T10:05:57.762Z,99.9
2022-11-26T10:10:08.684Z,99.9
2022-11-26T10:12:24.692Z,99.9
2022-11-26T10:13:19.655Z,99.9
2022-11-26T10:15:20.081Z,99.9
2022-11-26T10:27:46.873Z,99.9
2022-11-26T10:29:50.826Z,99.9
2022-11-26T10:31:54.851Z,99.9
2022-11-26T10:33:58.782Z,99.9
2022-11-26T10:36:05.762Z,99.9
2022-11-26T10:38:09.757Z,99.9
2022-11-26T10:40:13.744Z,99.9
2022-11-26T10:42:17.690Z,99.9
2022-11-26T10:44:21.676Z,99.9
2022-11-26T10:46:25.733Z,99.9
2022-11-26T10:48:29.649Z,99.9
2022-11-26T10:50:47.617Z,99.9
2022-11-26T10:52:40.619Z,99.9
2022-11-26T10:54:44.598Z,99.9
2022-11-26T10:56:48.590Z,99.9
2022-11-26T11:00:56.667Z,99.9
2022-11-26T11:03:00.569Z,99.9
2022-11-26T11:05:07.668Z,99.9
2022-11-26T11:07:12.098Z,99.9
2022-11-26T11:09:15.579Z,99.9
2022-11-26T11:10:19.218Z,91.5
2022-11-26T11:12:23.085Z,38.6
2022-11-26T11:14:27.081Z,1
2022-11-26T11:16:31.220Z,1
2022-11-26T11:18:38.110Z,99.6
2022-11-26T11:20:42.722Z,99.8
2022-11-26T11:22:46.718Z,99.8
2022-11-26T11:24:50.754Z,1
2022-11-26T11:26:54.739Z,99.8
2022-11-26T11:28:58.768Z,99.8
2022-11-26T11:31:02.748Z,61.3
2022-11-26T11:33:09.788Z,1
2022-11-26T11:35:13.808Z,1
2022-11-26T11:37:17.834Z,99.6
2022-11-26T11:39:21.858Z,99.8
2022-11-26T11:41:25.875Z,99.8
2022-11-26T11:43:29.863Z,99.8
2022-11-26T11:47:40.916Z,99.8
2022-11-26T11:49:44.960Z,99.9
2022-11-26T11:51:48.977Z,99.9
2022-11-26T11:56:02.055Z,99.9
2022-11-26T11:58:01.035Z,99.9
2022-11-26T12:00:05.068Z,99.5
2022-11-26T12:02:12.237Z,98.8
2022-11-26T12:04:19.519Z,98.3
2022-11-26T12:06:20.155Z,56.1
2022-11-26T12:08:38.977Z,68.9
2022-11-26T12:12:47.066Z,58
2022-11-26T12:16:58.198Z,56.3
2022-11-26T12:21:06.164Z,1
2022-11-26T12:27:18.269Z,1
2022-11-26T12:35:37.415Z,1
2022-11-26T12:37:41.485Z,1
2022-11-26T12:39:51.850Z,1
2022-11-26T12:41:49.524Z,1
2022-11-26T12:43:56.580Z,1
2022-11-26T12:46:00.683Z,1
2022-11-26T12:48:04.657Z,1
2022-11-26T12:50:08.724Z,1
2022-11-26T12:52:12.736Z,1
2022-11-26T12:54:16.826Z,1
2022-11-26T12:56:20.856Z,1
2022-11-26T12:58:27.904Z,1
2022-11-26T13:00:35.988Z,1
2022-11-26T13:02:36.112Z,1
2022-11-26T13:03:39.524Z,1
2022-11-26T13:05:49.966Z,1
2022-11-26T13:09:53.290Z,1
2022-11-26T13:12:00.369Z,1
2022-11-26T13:14:04.339Z,1
2022-11-26T13:16:08.475Z,1
2022-11-26T13:18:12.440Z,1
2022-11-26T13:20:16.537Z,1
2022-11-26T13:22:20.556Z,1
2022-11-26T13:24:24.603Z,1
2022-11-26T13:32:43.829Z,1
2022-11-26T13:34:47.874Z,1
2022-11-26T13:41:03.073Z,1
2022-11-26T13:43:07.095Z,1
2022-11-26T13:45:11.141Z,1
2022-11-26T13:49:19.256Z,1
2022-11-26T13:51:23.308Z,1
2022-11-26T13:53:27.357Z,1
2022-11-26T13:55:34.388Z,1
2022-11-26T13:57:38.450Z,3.7
2022-11-26T13:59:42.585Z,8.8
2022-11-26T14:00:46.076Z,9.9
2022-11-26T14:02:50.149Z,16.8
2022-11-26T14:04:54.147Z,4.6
2022-11-26T14:06:58.174Z,14.3
2022-11-26T14:09:05.221Z,14.2
2022-11-26T14:11:09.296Z,14.8
2022-11-26T14:13:13.353Z,28.4
2022-11-26T14:15:17.431Z,28
2022-11-26T14:17:21.419Z,28.3
2022-11-26T14:19:25.462Z,29
2022-11-26T14:21:29.516Z,33.6
2022-11-26T14:23:36.582Z,49.8
2022-11-26T14:25:40.629Z,42
2022-11-26T14:27:44.659Z,41.3
2022-11-26T14:29:48.717Z,50.4
2022-11-26T14:31:52.835Z,51.1
2022-11-26T14:33:56.788Z,52
2022-11-26T14:36:00.834Z,34.2
2022-11-26T14:38:07.885Z,33.6
2022-11-26T14:40:11.941Z,25.8
2022-11-26T14:42:15.946Z,24.5
2022-11-26T14:44:20.008Z,12.6
2022-11-26T14:46:24.107Z,9.9
2022-11-26T14:48:28.097Z,9.8
2022-11-26T14:50:32.121Z,4.7
2022-11-26T14:52:39.173Z,11.1
2022-11-26T14:54:43.222Z,16.4
2022-11-26T14:56:47.276Z,10.3
2022-11-26T14:57:50.766Z,11.5
2022-11-26T15:01:58.963Z,19.5
2022-11-26T15:06:09.947Z,36.7
2022-11-26T15:08:14.000Z,37.2
2022-11-26T15:10:18.019Z,37.1
2022-11-26T15:12:22.036Z,36.5
2022-11-26T15:14:26.083Z,41.9
2022-11-26T15:18:34.139Z,55.9
2022-11-26T15:20:41.188Z,79
2022-11-26T15:22:45.195Z,88.4
2022-11-26T15:24:49.207Z,94.4
2022-11-26T15:26:53.239Z,95.9
2022-11-26T15:28:57.277Z,98.1
2022-11-26T15:31:01.456Z,98.5
2022-11-26T15:33:05.323Z,99.1
2022-11-26T15:35:12.476Z,99.6
2022-11-26T15:37:16.348Z,99.6
2022-11-26T15:43:28.382Z,99.9
2022-11-26T15:50:10.635Z,99.9
2022-11-26T15:51:47.442Z,99.9
2022-11-26T15:56:15.786Z,99.9
2022-11-26T15:58:19.794Z,99.9
2022-11-26T16:00:23.790Z,99.9
2022-11-26T16:04:34.877Z,99.9
2022-11-26T16:06:38.839Z,99.9
2022-11-26T16:08:42.958Z,99.9
2022-11-26T16:10:46.843Z,99.9
2022-11-26T16:12:50.819Z,99.9
2022-11-26T16:14:54.812Z,99.9
2022-11-26T16:17:07.823Z,99.9
2022-11-26T16:21:09.840Z,99.9
2022-11-26T16:23:13.813Z,99.9
2022-11-26T16:25:17.841Z,99.9
2022-11-26T16:27:21.830Z,99.9
2022-11-26T16:29:25.810Z,99.9
2022-11-26T16:31:32.819Z,99.9
2022-11-26T16:33:36.810Z,99.9
2022-11-26T16:35:45.745Z,99.9
2022-11-26T16:37:44.799Z,99.9
2022-11-26T16:39:48.771Z,99.9
2022-11-26T16:41:52.758Z,99.9
2022-11-26T16:43:58.454Z,99.9
2022-11-26T16:46:03.814Z,1
2022-11-26T16:48:07.772Z,1
2022-11-26T16:50:14.691Z,1
2022-11-26T16:57:27.146Z,1
2022-11-26T16:59:34.157Z,1
2022-11-26T17:03:42.248Z,1
2022-11-26T17:05:46.079Z,1
2022-11-26T17:07:50.156Z,1
2022-11-26T17:09:54.023Z,1
2022-11-26T17:11:58.019Z,1
2022-11-26T17:14:05.012Z,1
2022-11-26T17:16:09.127Z,1
2022-11-26T17:18:12.933Z,5.1
2022-11-26T17:20:17.022Z,1
2022-11-26T17:22:20.865Z,1
2022-11-26T17:24:31.162Z,22.8
2022-11-26T17:26:28.814Z,57.2
2022-11-26T17:28:35.794Z,58.8
2022-11-26T17:30:39.775Z,59.3
2022-11-26T17:32:43.702Z,59.7
2022-11-26T17:34:47.679Z,59.8
2022-11-26T17:36:51.645Z,99.6
2022-11-26T17:38:55.598Z,98.6
2022-11-26T17:40:59.556Z,60.2
2022-11-26T17:43:06.639Z,99.8
2022-11-26T17:45:10.480Z,99.8
2022-11-26T17:47:16.912Z,99.8
2022-11-26T17:48:17.912Z,99.8
2022-11-26T17:50:21.868Z,99.8
2022-11-26T17:52:25.826Z,99.8
2022-11-26T17:54:29.825Z,99.9
2022-11-26T17:58:40.682Z,99.9
2022-11-26T18:00:44.631Z,99.9
2022-11-26T18:04:52.536Z,1
2022-11-26T18:06:56.507Z,99.9
2022-11-26T18:09:00.449Z,99.9
2022-11-26T18:11:07.552Z,1
2022-11-26T18:13:11.319Z,1
2022-11-26T18:15:15.241Z,1
2022-11-26T18:19:23.139Z,9.3
2022-11-26T18:21:27.045Z,33.3
2022-11-26T18:23:30.979Z,1
2022-11-26T18:25:37.929Z,1
2022-11-26T18:27:41.860Z,1
2022-11-26T18:29:45.845Z,1
2022-11-26T18:31:49.743Z,16.9
2022-11-26T18:33:53.656Z,1
2022-11-26T18:35:57.585Z,1
2022-11-26T18:38:01.509Z,1
2022-11-26T18:40:08.497Z,1
2022-11-26T18:42:36.736Z,3.5
2022-11-26T18:45:19.844Z,1
2022-11-26T18:47:23.909Z,1
2022-11-26T18:49:27.687Z,1
2022-11-26T18:51:31.626Z,99.6
2022-11-26T18:53:38.588Z,99.8
2022-11-26T18:55:42.553Z,99.8
2022-11-26T18:57:46.622Z,99.8
2022-11-26T19:01:54.349Z,99.8
2022-11-26T19:06:03.717Z,99.9
2022-11-26T19:08:11.933Z,99.9
2022-11-26T19:10:14.693Z,99.9
2022-11-26T19:14:22.491Z,99.9
2022-11-26T19:18:30.358Z,99.9
2022-11-26T19:22:41.264Z,99.9
2022-11-26T19:26:49.132Z,99.9
2022-11-26T19:28:53.069Z,76.1
2022-11-26T19:30:57.232Z,96.6
2022-11-26T19:33:00.944Z,57.9
2022-11-26T19:35:06.219Z,72.6
2022-11-26T19:37:11.831Z,99.8
2022-11-26T19:39:15.774Z,99.8
2022-11-26T19:43:38.434Z,99.8
2022-11-26T19:45:42.399Z,99.8
2022-11-26T19:49:53.243Z,99.9
2022-11-26T19:51:57.177Z,99.9
2022-11-26T19:54:01.099Z,99.9
2022-11-26T19:56:05.011Z,99.9
2022-11-26T19:58:08.961Z,99.9
2022-11-26T20:00:12.880Z,99.9
2022-11-26T20:04:23.773Z,1
2022-11-26T20:08:31.610Z,1
2022-11-26T20:18:54.295Z,99.9
2022-11-26T20:20:58.216Z,99.9
2022-11-26T20:23:02.176Z,99.9
2022-11-26T20:25:06.094Z,99.9
2022-11-26T20:27:10.019Z,99.9
2022-11-26T20:29:13.972Z,99.9
2022-11-26T20:31:23.089Z,99.9
2022-11-26T20:33:25.845Z,99.9
2022-11-26T20:35:31.595Z,99.9
2022-11-26T20:37:32.705Z,81.9
2022-11-26T20:38:36.164Z,57.7
2022-11-26T20:40:40.113Z,15.5
2022-11-26T20:42:44.037Z,1
2022-11-26T20:44:47.973Z,1
2022-11-26T20:46:54.911Z,1
2022-11-26T20:51:02.804Z,1
2022-11-26T20:53:06.753Z,1
2022-11-26T20:55:10.720Z,99.6
2022-11-26T20:57:14.631Z,1
2022-11-26T20:59:18.567Z,99.8
2022-11-26T21:01:25.637Z,99.8
2022-11-26T21:05:33.402Z,99.8
2022-11-26T21:07:37.408Z,99.8
2022-11-26T21:09:41.462Z,99.9
2022-11-26T21:11:45.214Z,99.9
2022-11-26T21:13:49.170Z,99.9
2022-11-26T21:15:56.138Z,99.9
2022-11-26T21:18:00.161Z,99.9
2022-11-26T21:20:04.052Z,99.9
2022-11-26T21:22:08.006Z,99.9
2022-11-26T21:24:11.927Z,99.9
2022-11-26T21:26:15.898Z,99.9
2022-11-26T21:28:19.841Z,99.9
2022-11-26T21:30:26.906Z,99.9
2022-11-26T21:32:30.805Z,99.9
2022-11-26T21:34:34.732Z,99.9
2022-11-26T21:46:01.051Z,99.9
2022-11-26T21:48:04.957Z,99.9
2022-11-26T21:50:08.911Z,99.9
2022-11-26T21:52:12.848Z,99.9
2022-11-26T21:54:16.851Z,99.9
2022-11-26T21:56:20.785Z,99.9
2022-11-26T21:58:27.764Z,99.9
2022-11-26T22:00:31.682Z,99.9
2022-11-26T22:02:35.950Z,99.9
2022-11-26T22:04:39.570Z,99.9
2022-11-26T22:06:43.521Z,99.9
2022-11-26T22:08:47.505Z,99.9
2022-11-26T22:10:51.403Z,99.9
2022-11-26T22:12:58.363Z,99.9
2022-11-26T22:15:02.311Z,99.9
2022-11-26T22:17:06.247Z,99.9
2022-11-26T22:19:10.188Z,99.9
2022-11-26T22:21:14.105Z,1
2022-11-26T22:23:18.037Z,99.9
2022-11-26T22:25:21.953Z,99.9
2022-11-26T22:29:32.855Z,1
2022-11-26T22:32:40.210Z,1
2022-11-26T22:34:44.158Z,1
2022-11-26T22:38:51.992Z,1
2022-11-26T22:40:58.928Z,1
2022-11-26T22:43:02.821Z,1
2022-11-26T22:47:10.692Z,1
2022-11-26T22:49:14.625Z,1
2022-11-26T22:51:18.545Z,1
2022-11-26T22:53:22.453Z,1
2022-11-26T22:55:29.415Z,1
2022-11-26T22:57:33.275Z,1
2022-11-26T22:59:37.597Z,1
2022-11-26T23:01:41.102Z,1
2022-11-26T23:03:45.068Z,1
2022-11-26T23:05:48.908Z,1
2022-11-26T23:07:52.909Z,1
2022-11-26T23:09:59.766Z,1
2022-11-26T23:12:03.688Z,1
2022-11-26T23:14:07.730Z,99.9
2022-11-26T23:16:11.506Z,99.9
2022-11-26T23:18:15.365Z,99.9
2022-11-26T23:20:19.296Z,99.9
2022-11-26T23:22:23.196Z,99.9
2022-11-26T23:24:30.151Z,99.9
2022-11-26T23:26:34.003Z,99.9
2022-11-26T23:28:37.929Z,99.9
2022-11-26T23:31:02.181Z,99.9
2022-11-26T23:39:20.720Z,99.9
2022-11-26T23:41:24.628Z,99.9
2022-11-26T23:43:28.548Z,99.9
2022-11-26T23:45:32.466Z,99.9
2022-11-26T23:47:36.373Z,99.9
2022-11-26T23:49:40.433Z,99.9
2022-11-26T23:51:47.179Z,99.9
2022-11-26T23:53:51.073Z,99.9
2022-11-26T23:55:54.984Z,99.9
2022-11-26T23:57:58.886Z,1
